x

San Juan, Pr (41053) Wave Buoy

7:00am - Sat 26th Jul 2014 All times are AST. -4 hours from GMT.

  • Sig Wave height 3.9ft
  • Peak Period 7s
  • Wind
    11mph, 13mph gusts
  • Sea Temp 82°f
  • Air Temp 82°f
  • Sea Pressure 1016.5mb
  • San Juan, Pr
  • San Juan, Pr

More Historic Weather Station data

Upgrade to MSW Pro to gain access to the past 30 days of data for over 8000 Wavebouys and Weather Stations around the globe.

Join Pro

Comparision Forecast

View Surf forecast
   
Sat 07/26 7:00am 4ft 7s 11 13 mph 1016.5mb 82f 82f
6:00am 4ft 7s 13 16 mph 1016.1mb 82f 82f
5:00am 4ft 6s 11 16 mph 1015.5mb 82f 82f
4:00am 4ft 6s 13 18 mph 1015.1mb 81f 82f
3:00am 4.5ft 5s 18 22 mph 1015.4mb 81f 83f
2:00am 4.5ft 5s 18 22 mph 1015.8mb 81f 83f
1:00am 4ft 6s 18 20 mph 1016.7mb 81f 83f
12:00am 4ft 7s 16 20 mph 1017.3mb 81f 83f
Fri 07/25 11:00pm 3.5ft 7s 18 20 mph 1017.6mb 81f 83f
10:00pm 4ft 9s 18 20 mph 1017.5mb 82f 83f
9:00pm 3.5ft 6s 18 22 mph 1017.1mb 82f 83f
8:00pm 3.5ft 6s 16 20 mph 1016.7mb 82f 83f
7:00pm 3.5ft 7s 16 20 mph 1016mb 82f 83f
6:00pm 3.5ft 6s 16 18 mph 1015.5mb 83f 83f
5:00pm 3.5ft 6s 16 20 mph 1015.4mb 83f 83f
4:00pm 3.5ft 8s 18 22 mph 1015.6mb 83f 83f
3:00pm 3.5ft 6s 18 20 mph 1015.8mb 83f 83f
2:00pm 4ft 6s 16 20 mph 1016.6mb 83f 83f
1:00pm 3.5ft 6s 13 16 mph 1017.2mb 82f 83f
12:00pm 4ft 6s 20 25 mph 1017.7mb - 83f
11:00am 4ft 6s 16 20 mph 1018mb 82f 82f
10:00am 4ft 5s 18 20 mph 1017.9mb 82f 83f
9:00am 4ft 6s 16 20 mph 1017.7mb 82f 83f
8:00am 4ft 6s 18 20 mph 1017.7mb 82f 83f
7:00am 4ft 5s 18 22 mph 1017.6mb 82f 83f
6:00am 4.5ft 6s 18 20 mph 1016.9mb 82f 82f
5:00am 4.5ft 7s 18 22 mph 1016.1mb 81f 82f
4:00am 4.5ft 5s 18 22 mph 1015.8mb 81f 82f
3:00am 4.5ft 6s 16 20 mph 1015.8mb 81f 82f
2:00am 4ft 7s 16 20 mph 1016.4mb 81f 82f
1:00am 3.5ft 7s 18 22 mph 1017mb 82f 82f
12:00am 4ft 6s 18 20 mph 1017.4mb 82f 83f
Thu 07/24 11:00pm 3.5ft 7s 16 20 mph 1017.8mb 82f 83f
10:00pm 3.5ft 7s 16 20 mph 1018mb 82f 83f
9:00pm 3.5ft 5s 18 20 mph 1017.6mb 82f 83f
8:00pm 4.5ft 6s 16 20 mph 1016.8mb 82f 83f
7:00pm 4.5ft 6s 18 20 mph 1016.4mb 82f 83f
6:00pm 4.5ft 6s 20 25 mph 1015.6mb 83f 83f
5:00pm 4.5ft 6s 20 25 mph 1015.4mb 83f 83f
4:00pm 5ft 6s 20 25 mph 1015.5mb 83f 83f
3:00pm 4.5ft 6s 20 25 mph 1015.8mb 83f 83f
2:00pm 5ft 6s 20 25 mph 1016.2mb 83f 83f
1:00pm 5ft 6s 20 27 mph 1016.7mb 83f 83f
12:00pm 5ft 6s 20 25 mph 1017.1mb 82f 83f
11:00am 4.5ft 6s 20 27 mph 1017.3mb 82f 83f
10:00am 4.5ft 6s 20 25 mph 1017.1mb 82f 83f
9:00am 4.5ft 6s 20 22 mph 1017mb 82f 83f
8:00am 4.5ft 6s 18 22 mph 1016.7mb 82f 82f
7:00am 4.5ft 6s 18 20 mph 1016.5mb 82f 83f
6:00am 4ft 5s 18 20 mph 1015.9mb 82f 82f
5:00am 5ft 6s 18 22 mph 1015.6mb 82f 83f
4:00am 4.5ft 7s 18 22 mph 1015.6mb 82f 83f
3:00am 4.5ft 7s 18 22 mph 1015.9mb 82f 83f
2:00am 4.5ft 6s 16 20 mph 1016.2mb 82f 83f
1:00am 4.5ft 6s 16 20 mph 1016.9mb 82f 83f
12:00am 4.5ft 6s 16 20 mph 1017.4mb 82f 83f
Wed 07/23 11:00pm 4.5ft 6s 18 20 mph 1017.5mb 82f 83f
10:00pm 4.5ft 5s 18 22 mph 1017.5mb 82f 83f
9:00pm 4ft 5s 18 22 mph 1017.3mb 82f 83f
8:00pm 4ft 5s 20 25 mph 1016.9mb 83f 83f
7:00pm 3.5ft 5s 20 25 mph 1016.3mb 83f 83f
6:00pm 4ft 5s 18 22 mph 1015.6mb 83f 83f
5:00pm 4ft 5s 18 22 mph 1015.6mb 83f 83f
4:00pm 4ft 5s 18 22 mph 1015.8mb 83f 83f
3:00pm 3.5ft 5s 20 22 mph 1016.2mb 83f 83f
1:00pm 3ft 6s 18 22 mph 1017.6mb 82f 83f
12:00pm 3ft 5s 16 20 mph 1018.2mb 82f 83f
11:00am 3ft 7s 16 18 mph 1018.3mb 82f 83f
10:00am 3ft 7s 13 18 mph 1018.4mb 82f 83f
9:00am 3ft 7s 11 13 mph 1018.5mb 82f 83f
8:00am 3.5ft 5s 7 9 mph 1018.3mb 82f 83f
7:00am 3.5ft 5s 11 13 mph 1017.7mb 82f 82f
6:00am 3.5ft 5s 13 16 mph 1017mb 82f 82f
5:00am 3.5ft 5s 11 16 mph 1016.5mb 82f 82f
4:00am 3.5ft 6s 11 16 mph 1016mb 82f 82f
3:00am 3.5ft 6s 13 16 mph 1016.4mb 82f 82f
2:00am 4ft 5s 16 20 mph 1016.6mb 82f 82f
1:00am 3.5ft 5s 18 20 mph 1017.1mb 82f 82f
12:00am 3.5ft 5s 16 20 mph 1017.8mb 82f 83f
Tue 07/22 11:00pm 3.5ft 5s 18 20 mph 1018mb 82f 83f
10:00pm 3.5ft 5s 11 13 mph 1017.7mb 82f 83f
9:00pm 3ft 7s 13 16 mph 1017.4mb 82f 82f
8:00pm 3ft 5s 13 16 mph 1017.1mb 82f 83f
7:00pm 3ft 6s 13 16 mph 1016.5mb 82f 83f
6:00pm 3ft 6s 13 16 mph 1016.2mb 82f 83f
5:00pm 3.5ft 6s 16 18 mph 1016mb 82f 82f
4:00pm 3.5ft 6s 18 22 mph 1015.9mb 82f 83f
3:00pm 3.5ft 5s 18 22 mph 1016.2mb 82f 83f
2:00pm 3.5ft 5s 16 20 mph 1016.8mb 82f 83f
1:00pm 3.5ft 5s 18 22 mph 1017.4mb 82f 83f